M/T An Dac+ — 9LY2270 — position and weather

sailwx.info

Track history (hours):
 
Tides and Currents Weather Stations Pressure Air Temp Water Temp Dewpoint Dewpoint Depression Visibility Wind Speed Wind Dir Waves Ship Positions

M/T An Dac+

Last reported at 2017-Dec-28 18:44 UTC. Time now 2018-Jan-22 00:12 UTC.
Position N 22°19' E 120°30'.
Warning: this ship's position is 24 days out of date.

Length 83 m.

Type: Ship (hazmat cat D). MMSI: 415933070.

Date/timePositionNaut miles runAvg speedWind from/ knotsBaromVisibWave heightAir tempDewpointWater temp
2017-Dec-28 18:44N 22°19' E 120°30'0 0.0
2017-Dec-28 13:05N 22°19' E 120°30'0 0.0
2017-Dec-28 12:58N 22°19' E 120°30'0 0.0
2017-Dec-27 17:49N 22°19' E 120°30'0 0.0
2017-Dec-27 17:23N 22°19' E 120°30'0 0.0
2017-Dec-26 18:43N 22°19' E 120°30'0 0.0
2017-Dec-26 18:15N 22°19' E 120°30'0 0.0
2017-Dec-25 17:57N 22°19' E 120°30'0 0.0
2017-Dec-25 17:21N 22°19' E 120°30'0 0.1
2017-Dec-25 16:46N 22°19' E 120°30'0 0.0
2017-Dec-25 14:38N 22°19' E 120°30'0 0.0
2017-Dec-25 14:30N 22°19' E 120°30'0 0.0
2017-Dec-25 13:50N 22°19' E 120°30'0 0.0
2017-Dec-25 13:31N 22°19' E 120°30'0 0.0
2017-Dec-25 12:54N 22°19' E 120°30'0 0.0
2017-Dec-25 12:16N 22°19' E 120°30'0 0.0
2017-Dec-25 12:00N 22°19' E 120°30'  
2017-Dec-22 08:06N 22°23' E 120°17'1 8.7
2017-Dec-22 07:59N 22°24' E 120°17'4 8.3
2017-Dec-22 07:30N 22°28' E 120°15'4 7.8
2017-Dec-22 07:00N 22°31' E 120°13'3 5.7
2017-Dec-22 06:30N 22°34' E 120°14'0 0.0
2017-Dec-22 06:00N 22°34' E 120°14'0 0.1
2017-Dec-22 05:30N 22°34' E 120°14'0 0.1
2017-Dec-22 05:00N 22°34' E 120°13'0 0.0
2017-Dec-22 04:30N 22°34' E 120°13'0 0.0
2017-Dec-22 04:00N 22°34' E 120°13'0 0.0
2017-Dec-22 03:30N 22°34' E 120°13'0 0.0
2017-Dec-22 03:00N 22°34' E 120°13'0 0.0
2017-Dec-22 02:31N 22°34' E 120°13'1 1.4
2017-Dec-22 02:00N 22°34' E 120°13'3 6.3
2017-Dec-22 01:29N 22°36' E 120°10'1 1.3
2017-Dec-22 01:00N 22°36' E 120°09'0 0.7
2017-Dec-22 00:30N 22°35' E 120°09'3 5.3
2017-Dec-21 23:59N 22°33' E 120°10'4 8.3
2017-Dec-21 23:29N 22°29' E 120°12'4 7.3
2017-Dec-21 23:00N 22°26' E 120°14'4 6.6
2017-Dec-21 22:28N 22°23' E 120°16'3 6.3
2017-Dec-21 22:00N 22°21' E 120°17'5 5.4
2017-Dec-21 21:08N 22°17' E 120°21'2 5.1
2017-Dec-21 20:48N 22°17' E 120°22'4 6.1
2017-Dec-21 20:05N 22°18' E 120°27'  
Track history (hours):
 
Tides and Currents Weather Stations Pressure Air Temp Water Temp Dewpoint Dewpoint Depression Visibility Wind Speed Wind Dir Waves Ship Positions

M/T An Dac+

Last reported at 2017-Dec-28 18:44 UTC. Time now 2018-Jan-22 00:12 UTC.
Position N 22°19' E 120°30'.
Warning: this ship's position is 24 days out of date.

Length 83 m.

Type: Ship (hazmat cat D). MMSI: 415933070.

Date/timePositionNaut miles runAvg speedWind from/ knotsBaromVisibWave heightAir tempDewpointWater temp
2017-Dec-28 18:44N 22°19' E 120°30'0 0.0
2017-Dec-28 13:05N 22°19' E 120°30'0 0.0
2017-Dec-28 12:58N 22°19' E 120°30'0 0.0
2017-Dec-27 17:49N 22°19' E 120°30'0 0.0
2017-Dec-27 17:23N 22°19' E 120°30'0 0.0
2017-Dec-26 18:43N 22°19' E 120°30'0 0.0
2017-Dec-26 18:15N 22°19' E 120°30'0 0.0
2017-Dec-25 17:57N 22°19' E 120°30'0 0.0
2017-Dec-25 17:21N 22°19' E 120°30'0 0.1
2017-Dec-25 16:46N 22°19' E 120°30'0 0.0
2017-Dec-25 14:38N 22°19' E 120°30'0 0.0
2017-Dec-25 14:30N 22°19' E 120°30'0 0.0
2017-Dec-25 13:50N 22°19' E 120°30'0 0.0
2017-Dec-25 13:31N 22°19' E 120°30'0 0.0
2017-Dec-25 12:54N 22°19' E 120°30'0 0.0
2017-Dec-25 12:16N 22°19' E 120°30'0 0.0
2017-Dec-25 12:00N 22°19' E 120°30'  
2017-Dec-22 08:06N 22°23' E 120°17'1 8.7
2017-Dec-22 07:59N 22°24' E 120°17'4 8.3
2017-Dec-22 07:30N 22°28' E 120°15'4 7.8
2017-Dec-22 07:00N 22°31' E 120°13'3 5.7
2017-Dec-22 06:30N 22°34' E 120°14'0 0.0
2017-Dec-22 06:00N 22°34' E 120°14'0 0.1
2017-Dec-22 05:30N 22°34' E 120°14'0 0.1
2017-Dec-22 05:00N 22°34' E 120°13'0 0.0
2017-Dec-22 04:30N 22°34' E 120°13'0 0.0
2017-Dec-22 04:00N 22°34' E 120°13'0 0.0
2017-Dec-22 03:30N 22°34' E 120°13'0 0.0
2017-Dec-22 03:00N 22°34' E 120°13'0 0.0
2017-Dec-22 02:31N 22°34' E 120°13'1 1.4
2017-Dec-22 02:00N 22°34' E 120°13'3 6.3
2017-Dec-22 01:29N 22°36' E 120°10'1 1.3
2017-Dec-22 01:00N 22°36' E 120°09'0 0.7
2017-Dec-22 00:30N 22°35' E 120°09'3 5.3
2017-Dec-21 23:59N 22°33' E 120°10'4 8.3
2017-Dec-21 23:29N 22°29' E 120°12'4 7.3
2017-Dec-21 23:00N 22°26' E 120°14'4 6.6
2017-Dec-21 22:28N 22°23' E 120°16'3 6.3
2017-Dec-21 22:00N 22°21' E 120°17'5 5.4
2017-Dec-21 21:08N 22°17' E 120°21'2 5.1
2017-Dec-21 20:48N 22°17' E 120°22'4 6.1
2017-Dec-21 20:05N 22°18' E 120°27'  

Dump ship's entire track history